This is the latest recevied weather packets stored in our database for station/object HS2XQB-3. If no packets are shown the sender has not sent any weather packets the latest 10 day(s).
| Time | Temp. | Humidity | Pressure | Rain* | Wind** | Luminosity | Snow |
|---|---|---|---|---|---|---|---|
| 1778099843 | 23.89° C | 82% | 1003 hPa | - | - | 0 W/m² | - |
| 1778098021 | 23.89° C | 77% | 1003 hPa | - | - | 0 W/m² | - |
| 1778096199 | 23.89° C | 82% | 1003 hPa | - | - | 0 W/m² | - |
| 1778094377 | 23.89° C | 80% | 1003 hPa | - | - | 0 W/m² | - |
| 1778092555 | 23.33° C | 72% | 1003 hPa | - | - | 0 W/m² | - |
| 1778090733 | 24.44° C | 80% | 1004 hPa | - | - | 0 W/m² | - |
| 1778088911 | 23.89° C | 77% | 1004 hPa | - | - | 0 W/m² | - |
| 1778087089 | 23.89° C | 74% | 1004 hPa | - | - | 0 W/m² | - |
| 1778085266 | 23.89° C | 72% | 1004 hPa | - | - | 0 W/m² | - |
| 1778083445 | 24.44° C | 77% | 1004 hPa | - | - | 0 W/m² | - |
| 1778081622 | 23.33° C | 68% | 1004 hPa | - | - | 0 W/m² | - |
| 1778079802 | 24.44° C | 74% | 1005 hPa | - | - | 0 W/m² | - |
| 1778077978 | 23.89° C | 71% | 1004 hPa | - | - | 0 W/m² | - |
| 1778076155 | 23.89° C | 68% | 1004 hPa | - | - | 0 W/m² | - |
| 1778074333 | 24.44° C | 72% | 1004 hPa | - | - | 0 W/m² | - |
| 1778072510 | 23.89° C | 67% | 1003 hPa | - | - | 0 W/m² | - |
| 1778070688 | 23.89° C | 65% | 1003 hPa | - | - | 0 W/m² | - |
| 1778068866 | 24.44° C | 68% | 1003 hPa | - | - | 0 W/m² | - |
| 1778067044 | 24.44° C | 63% | 1003 hPa | - | - | 0 W/m² | - |
| 1778065221 | 23.89° C | 57% | 1003 hPa | - | - | 0 W/m² | - |
| 1778063399 | 24.44° C | 64% | 1002 hPa | - | - | 0 W/m² | - |
| 1778061577 | 24.44° C | 59% | 1002 hPa | - | - | 0 W/m² | - |
| 1778059755 | 24.44° C | 61% | 1002 hPa | - | - | 0 W/m² | - |
| 1778057932 | 24.44° C | 51% | 1002 hPa | - | - | 0 W/m² | - |
| 1778056110 | 25° C | 45% | 1002 hPa | - | - | 0 W/m² | - |
* Rain since midnight (hover to see other rain measurements)
** Current wind speed in m/s (hover to see current wind gust speed)